createdAt,value
2023-03-11T00:01:58.697Z,4.30
2023-03-11T00:04:28.247Z,3.70
2023-03-11T00:06:58.290Z,4.32
2023-03-11T00:09:27.954Z,4.10
2023-03-11T00:12:01.253Z,4.20
2023-03-11T00:14:34.090Z,4.18
2023-03-11T00:17:02.637Z,4.00
2023-03-11T00:19:35.868Z,3.87
2023-03-11T00:22:08.653Z,4.43
2023-03-11T00:24:44.322Z,3.97
2023-03-11T00:27:14.153Z,3.80
2023-03-11T00:29:46.586Z,3.85
2023-03-11T00:32:19.322Z,4.03
2023-03-11T00:34:58.170Z,3.70
2023-03-11T00:37:30.780Z,3.92
2023-03-11T00:39:58.028Z,4.12
2023-03-11T00:42:28.744Z,3.80
2023-03-11T00:44:58.658Z,3.50
2023-03-11T00:47:31.620Z,3.78
2023-03-11T00:52:28.298Z,3.45
2023-03-11T00:55:02.136Z,3.72
2023-03-11T00:57:31.483Z,3.53
2023-03-11T00:59:59.909Z,3.60
2023-03-11T01:02:30.114Z,3.28
2023-03-11T01:05:00.245Z,3.62
2023-03-11T01:07:26.921Z,3.62
2023-03-11T01:09:56.716Z,3.42
2023-03-11T01:12:29.675Z,3.67
2023-03-11T01:17:29.551Z,3.90
2023-03-11T01:19:59.061Z,3.45
2023-03-11T01:22:26.185Z,3.10
2023-03-11T01:24:56.066Z,3.30
2023-03-11T01:27:22.808Z,3.37
2023-03-11T01:29:55.780Z,3.20
2023-03-11T01:34:52.301Z,3.10
2023-03-11T01:37:19.072Z,2.90
2023-03-11T01:39:49.674Z,2.90
2023-03-11T01:42:22.227Z,3.20
2023-03-11T01:44:55.261Z,3.40
2023-03-11T01:49:59.344Z,3.25
2023-03-11T01:52:26.187Z,3.20
2023-03-11T01:54:52.893Z,3.08
2023-03-11T01:57:25.641Z,3.42
2023-03-11T01:59:56.813Z,3.30
2023-03-11T02:02:32.316Z,3.15
2023-03-11T02:05:03.750Z,3.20
2023-03-11T02:07:34.443Z,3.17
2023-03-11T02:10:01.325Z,3.05
2023-03-11T02:12:40.766Z,2.95
2023-03-11T02:15:12.528Z,3.28
2023-03-11T02:17:44.398Z,3.05
2023-03-11T02:20:17.420Z,2.83
2023-03-11T02:25:38.664Z,3.10
2023-03-11T02:28:18.087Z,2.90
2023-03-11T02:30:45.828Z,2.87
2023-03-11T02:33:14.184Z,3.05
2023-03-11T02:35:41.731Z,2.80
2023-03-11T02:38:11.864Z,2.75
2023-03-11T02:40:49.064Z,3.00
2023-03-11T02:43:24.169Z,3.05
2023-03-11T02:45:57.268Z,2.70
2023-03-11T02:50:51.873Z,2.65
2023-03-11T02:53:22.205Z,3.00
2023-03-11T02:55:49.147Z,2.35
2023-03-11T02:58:19.104Z,2.67
2023-03-11T03:00:45.880Z,2.53
2023-03-11T03:03:12.750Z,2.90
2023-03-11T03:05:42.908Z,2.65
2023-03-11T03:08:14.586Z,2.40
2023-03-11T03:10:41.342Z,3.10
2023-03-11T03:13:17.821Z,2.50
2023-03-11T03:15:47.979Z,2.75
2023-03-11T03:18:21.286Z,2.60
2023-03-11T03:20:48.503Z,2.35
2023-03-11T03:23:19.027Z,2.60
2023-03-11T03:25:46.707Z,2.60
2023-03-11T03:28:19.196Z,2.75
2023-03-11T03:30:46.529Z,2.85
2023-03-11T03:33:19.587Z,2.60
2023-03-11T03:38:24.333Z,2.40
2023-03-11T03:40:57.584Z,2.17
2023-03-11T03:43:30.481Z,2.08
2023-03-11T03:46:03.217Z,2.47
2023-03-11T03:48:36.752Z,2.40
2023-03-11T03:51:07.134Z,2.33
2023-03-11T03:53:38.014Z,2.30
2023-03-11T03:56:14.816Z,2.50
2023-03-11T03:58:51.245Z,2.00
2023-03-11T04:01:21.497Z,2.20
2023-03-11T04:03:48.528Z,2.10
2023-03-11T04:06:27.521Z,2.15
2023-03-11T04:08:55.086Z,2.17
2023-03-11T04:11:22.505Z,2.10
2023-03-11T04:13:52.942Z,2.20
2023-03-11T04:16:26.756Z,2.22
2023-03-11T04:18:59.986Z,2.25
2023-03-11T04:21:33.492Z,2.25
2023-03-11T04:24:03.860Z,1.83
2023-03-11T04:26:34.083Z,2.10
2023-03-11T04:29:05.990Z,1.90
2023-03-11T04:31:36.114Z,2.12
2023-03-11T04:34:09.108Z,2.05
2023-03-11T04:39:11.332Z,2.03
2023-03-11T04:41:41.256Z,1.90
2023-03-11T04:44:14.781Z,1.83
2023-03-11T04:46:47.591Z,2.00
2023-03-11T04:49:17.472Z,1.92
2023-03-11T04:51:50.264Z,1.90
2023-03-11T04:54:17.358Z,1.90
2023-03-11T04:56:44.106Z,1.80
2023-03-11T04:59:15.653Z,1.90
2023-03-11T05:01:42.450Z,1.73
2023-03-11T05:04:12.607Z,2.03
2023-03-11T05:06:39.439Z,1.83
2023-03-11T05:09:14.570Z,1.65
2023-03-11T05:11:53.280Z,1.83
2023-03-11T05:14:23.113Z,1.90
2023-03-11T05:16:52.829Z,1.90
2023-03-11T05:19:25.792Z,1.95
2023-03-11T05:21:55.498Z,1.73
2023-03-11T05:24:24.881Z,1.70
2023-03-11T05:26:55.246Z,1.75
2023-03-11T05:29:22.175Z,1.70
2023-03-11T05:31:54.813Z,1.67
2023-03-11T05:34:24.443Z,1.62
2023-03-11T05:37:02.681Z,3.12
2023-03-11T05:39:35.581Z,2.10
2023-03-11T05:42:08.490Z,2.50
2023-03-11T05:44:41.641Z,2.42
2023-03-11T05:49:41.636Z,2.50
2023-03-11T05:52:08.406Z,1.92
2023-03-11T05:54:35.408Z,2.42
2023-03-11T05:57:05.304Z,2.60
2023-03-11T05:59:32.073Z,2.35
2023-03-11T06:02:05.303Z,2.30
2023-03-11T06:04:34.781Z,2.10
2023-03-11T06:07:06.960Z,2.35
2023-03-11T06:09:40.150Z,2.55
2023-03-11T06:14:36.665Z,2.45
2023-03-11T06:17:06.347Z,2.33
2023-03-11T06:19:37.491Z,2.37
2023-03-11T06:22:04.159Z,2.72
2023-03-11T06:24:37.275Z,6.25
2023-03-11T06:27:07.151Z,7.35
2023-03-11T06:29:33.841Z,6.20
2023-03-11T06:32:03.668Z,5.43
2023-03-11T06:34:34.883Z,5.85
2023-03-11T06:37:04.493Z,4.85
2023-03-11T06:39:34.511Z,6.93
2023-03-11T06:42:04.079Z,6.10
2023-03-11T06:44:31.120Z,6.90
2023-03-11T06:46:57.925Z,6.97
2023-03-11T06:49:25.134Z,10.85
2023-03-11T06:51:58.044Z,13.50
2023-03-11T06:54:30.569Z,13.35
2023-03-11T06:57:03.357Z,14.80
2023-03-11T06:59:33.303Z,15.32
2023-03-11T07:02:00.224Z,16.50
2023-03-11T07:04:29.690Z,14.13
2023-03-11T07:07:02.561Z,20.02
2023-03-11T07:09:29.376Z,226.15
2023-03-11T07:11:58.750Z,89.47
2023-03-11T07:14:29.542Z,91.22
2023-03-11T07:16:59.583Z,120.20
2023-03-11T07:19:29.262Z,117.47
2023-03-11T07:22:02.607Z,105.45
2023-03-11T07:24:32.424Z,111.00
2023-03-11T07:27:02.432Z,119.53
2023-03-11T07:29:34.944Z,127.93
2023-03-11T07:32:08.570Z,126.18
2023-03-11T07:34:44.533Z,121.75
2023-03-11T07:37:23.402Z,135.05
2023-03-11T07:39:53.729Z,244.20
2023-03-11T07:42:26.516Z,193.25
2023-03-11T07:44:57.104Z,170.38
2023-03-11T07:47:23.892Z,136.43
2023-03-11T07:49:56.301Z,135.48
2023-03-11T07:52:33.182Z,143.82
2023-03-11T07:55:00.568Z,138.85
2023-03-11T07:57:33.373Z,135.23
2023-03-11T08:00:01.422Z,124.03
2023-03-11T08:02:34.233Z,149.75
2023-03-11T08:05:05.287Z,265.90
2023-03-11T08:07:33.548Z,323.60
2023-03-11T08:10:00.827Z,345.88
2023-03-11T08:12:28.630Z,292.40
2023-03-11T08:15:01.294Z,308.67
2023-03-11T08:17:31.287Z,274.05
2023-03-11T08:20:04.728Z,242.18
2023-03-11T08:25:19.588Z,223.00
2023-03-11T08:27:49.482Z,212.15
2023-03-11T08:30:19.086Z,193.23
2023-03-11T08:32:51.304Z,187.00
2023-03-11T08:35:20.653Z,191.18
2023-03-11T08:37:53.639Z,184.25
2023-03-11T08:40:26.605Z,181.52
2023-03-11T08:45:30.579Z,243.48
2023-03-11T08:48:05.177Z,229.13
2023-03-11T08:50:52.824Z,243.68
2023-03-11T08:53:28.588Z,208.50
2023-03-11T08:56:02.412Z,177.50
2023-03-11T08:58:29.774Z,190.62
2023-03-11T09:01:01.035Z,181.70
2023-03-11T09:03:34.383Z,182.45
2023-03-11T09:06:15.801Z,181.87
2023-03-11T09:08:48.223Z,178.30
2023-03-11T09:11:26.580Z,167.57
2023-03-11T09:13:58.420Z,159.73
2023-03-11T09:16:32.338Z,144.23
2023-03-11T09:19:09.065Z,146.10
2023-03-11T09:21:42.385Z,152.35
2023-03-11T09:24:19.453Z,145.00
2023-03-11T09:26:54.215Z,140.35
2023-03-11T09:29:30.610Z,142.15
2023-03-11T09:32:08.146Z,152.32
2023-03-11T09:34:41.844Z,136.88
2023-03-11T09:37:12.703Z,136.18
2023-03-11T09:39:42.816Z,131.32
2023-03-11T09:42:55.849Z,132.45
2023-03-11T09:45:35.668Z,128.73
2023-03-11T09:48:43.050Z,119.72
2023-03-11T09:51:29.078Z,112.45
2023-03-11T09:54:15.924Z,110.50
2023-03-11T09:56:47.879Z,116.22
2023-03-11T09:59:28.031Z,115.68
2023-03-11T10:02:00.995Z,117.22
2023-03-11T10:04:48.035Z,151.02
2023-03-11T10:07:26.712Z,138.82
2023-03-11T10:10:02.079Z,127.70
2023-03-11T10:12:58.573Z,123.07
2023-03-11T10:15:56.033Z,131.43
2023-03-11T10:18:35.201Z,121.13
2023-03-11T10:21:25.674Z,115.88
2023-03-11T10:24:14.468Z,114.95
2023-03-11T10:27:03.058Z,112.10
2023-03-11T10:30:00.306Z,117.40
2023-03-11T10:32:37.048Z,110.68
2023-03-11T10:35:22.957Z,110.53
2023-03-11T10:38:14.307Z,103.47
2023-03-11T10:40:45.195Z,102.18
2023-03-11T10:43:18.105Z,103.20
2023-03-11T10:45:46.884Z,101.65
2023-03-11T10:48:27.298Z,99.53
2023-03-11T10:51:17.849Z,93.15
2023-03-11T10:54:02.314Z,92.65
2023-03-11T10:56:39.666Z,95.62
2023-03-11T10:59:22.972Z,92.15
2023-03-11T11:04:43.077Z,83.43
2023-03-11T11:07:37.786Z,88.55
2023-03-11T11:10:21.659Z,80.53
2023-03-11T11:13:05.034Z,82.35
2023-03-11T11:15:37.914Z,79.55
2023-03-11T11:21:15.850Z,77.00
2023-03-11T11:23:54.023Z,73.72
2023-03-11T11:26:33.143Z,77.55
2023-03-11T11:29:15.204Z,69.82
2023-03-11T11:31:50.825Z,70.65
2023-03-11T11:34:35.994Z,70.57
2023-03-11T11:37:15.922Z,67.10
2023-03-11T11:39:50.779Z,68.00
2023-03-11T11:42:26.815Z,65.57
2023-03-11T11:45:00.855Z,63.67
2023-03-11T11:47:37.117Z,64.75
2023-03-11T11:50:13.830Z,60.75
2023-03-11T11:52:53.984Z,60.78
2023-03-11T11:55:25.453Z,59.22
2023-03-11T11:57:55.858Z,59.33
2023-03-11T12:00:43.242Z,57.83
2023-03-11T12:03:31.947Z,54.50
2023-03-11T12:06:00.698Z,52.00
2023-03-11T12:08:46.822Z,52.00
2023-03-11T12:11:47.775Z,50.53
2023-03-11T12:14:32.287Z,47.25
2023-03-11T12:17:04.080Z,50.90
2023-03-11T12:19:55.214Z,49.22
2023-03-11T12:22:43.665Z,47.22
2023-03-11T12:25:22.944Z,44.90
2023-03-11T12:28:16.917Z,47.30
2023-03-11T12:30:55.593Z,43.30
2023-03-11T12:33:50.093Z,43.83
2023-03-11T12:36:41.682Z,42.67
2023-03-11T12:39:36.277Z,40.40
2023-03-11T12:42:13.774Z,39.45
2023-03-11T12:44:43.708Z,40.58
2023-03-11T12:47:16.565Z,38.65
2023-03-11T12:49:52.468Z,39.22
2023-03-11T12:53:00.437Z,39.28
2023-03-11T12:55:40.140Z,39.08
2023-03-11T12:58:39.121Z,35.75
2023-03-11T13:01:42.042Z,36.00
2023-03-11T13:04:21.529Z,32.67
2023-03-11T13:07:36.569Z,31.58
2023-03-11T13:10:21.034Z,31.37
2023-03-11T13:12:50.345Z,33.08
2023-03-11T13:15:24.084Z,29.63
2023-03-11T13:18:12.479Z,28.30
2023-03-11T13:20:42.249Z,29.48
2023-03-11T13:23:15.691Z,28.23
2023-03-11T13:25:53.492Z,27.50
2023-03-11T13:28:48.668Z,27.95
2023-03-11T13:32:01.796Z,27.65
2023-03-11T13:34:47.200Z,26.52
2023-03-11T13:37:24.798Z,25.10
2023-03-11T13:40:23.047Z,26.15
2023-03-11T13:43:09.935Z,23.83
2023-03-11T13:45:41.653Z,23.77
2023-03-11T13:48:28.972Z,21.98
2023-03-11T13:51:24.101Z,24.23
2023-03-11T13:54:04.439Z,23.45
2023-03-11T13:56:51.502Z,22.80
2023-03-11T13:59:33.768Z,23.15
2023-03-11T14:02:21.193Z,21.42
2023-03-11T14:04:59.981Z,22.10
2023-03-11T14:07:35.214Z,21.92
2023-03-11T14:10:30.314Z,21.60
2023-03-11T14:13:35.329Z,20.30
2023-03-11T14:16:17.448Z,21.55
2023-03-11T14:18:52.281Z,19.45
2023-03-11T14:21:22.257Z,19.33
2023-03-11T14:23:57.752Z,16.33
2023-03-11T14:26:28.964Z,14.30
2023-03-11T14:29:04.823Z,13.07
2023-03-11T14:31:41.238Z,13.15
2023-03-11T14:34:19.796Z,13.13
2023-03-11T14:37:00.550Z,13.80
2023-03-11T14:39:39.968Z,15.50
2023-03-11T14:42:12.828Z,14.25
2023-03-11T14:44:50.104Z,13.23
2023-03-11T14:47:31.756Z,14.57
2023-03-11T14:49:59.800Z,13.45
2023-03-11T14:52:36.943Z,12.30
2023-03-11T14:55:14.367Z,12.57
2023-03-11T14:58:12.394Z,11.88
2023-03-11T15:00:47.345Z,12.50
2023-03-11T15:03:23.602Z,11.45
2023-03-11T15:05:59.151Z,11.93
2023-03-11T15:08:31.916Z,10.82
2023-03-11T15:11:15.650Z,11.48
2023-03-11T15:13:45.907Z,8.77
2023-03-11T15:16:33.823Z,9.23
2023-03-11T15:19:29.687Z,10.30
2023-03-11T15:22:07.396Z,9.60
2023-03-11T15:24:38.943Z,9.60
2023-03-11T15:27:33.152Z,9.65
2023-03-11T15:30:02.700Z,9.02
2023-03-11T15:32:38.742Z,8.02
2023-03-11T15:35:19.345Z,8.55
2023-03-11T15:37:50.141Z,8.77
2023-03-11T15:40:44.390Z,8.05
2023-03-11T15:43:26.756Z,7.70
2023-03-11T15:45:55.057Z,7.22
2023-03-11T15:48:22.792Z,6.82
2023-03-11T15:50:55.656Z,6.62
2023-03-11T15:53:33.201Z,7.00
2023-03-11T15:56:14.531Z,7.00
2023-03-11T15:58:45.060Z,6.32
2023-03-11T16:01:12.730Z,6.72
2023-03-11T16:03:44.697Z,6.00
2023-03-11T16:06:15.437Z,6.82
2023-03-11T16:08:46.271Z,6.25
2023-03-11T16:11:16.813Z,6.00
2023-03-11T16:13:49.660Z,5.50
2023-03-11T16:16:18.040Z,5.85
2023-03-11T16:18:53.252Z,5.20
2023-03-11T16:21:25.605Z,4.93
2023-03-11T16:24:00.584Z,5.65
2023-03-11T16:26:30.452Z,5.12
2023-03-11T16:29:16.548Z,5.12
2023-03-11T16:31:45.870Z,4.50
2023-03-11T16:34:18.742Z,4.28
2023-03-11T16:36:49.031Z,4.10
2023-03-11T16:39:21.121Z,4.07
2023-03-11T16:41:48.916Z,4.32
2023-03-11T16:44:24.537Z,3.50
2023-03-11T16:46:55.267Z,4.40
2023-03-11T16:49:31.657Z,4.35
2023-03-11T16:51:59.545Z,4.53
2023-03-11T16:54:29.664Z,4.07
2023-03-11T16:57:04.575Z,4.70
2023-03-11T16:59:35.102Z,5.10
2023-03-11T17:02:04.353Z,4.90
2023-03-11T17:04:35.417Z,5.12
2023-03-11T17:07:08.277Z,4.72
2023-03-11T17:09:38.766Z,4.82
2023-03-11T17:12:12.150Z,5.32
2023-03-11T17:14:43.612Z,4.72
2023-03-11T17:17:14.695Z,4.87
2023-03-11T17:19:43.773Z,5.18
2023-03-11T17:22:14.855Z,5.70
2023-03-11T17:24:45.280Z,5.45
2023-03-11T17:27:16.100Z,6.62
2023-03-11T17:29:43.195Z,5.47
2023-03-11T17:32:15.764Z,6.05
2023-03-11T17:34:47.089Z,5.65
2023-03-11T17:37:17.034Z,5.97
2023-03-11T17:39:47.120Z,5.03
2023-03-11T17:42:17.333Z,5.35
2023-03-11T17:44:51.667Z,5.30
2023-03-11T17:47:25.260Z,5.68
2023-03-11T17:49:53.386Z,5.00
2023-03-11T17:52:26.060Z,5.05
2023-03-11T17:54:57.699Z,5.15
2023-03-11T17:57:25.492Z,4.87
2023-03-11T18:00:00.228Z,5.07
2023-03-11T18:02:32.537Z,4.40
2023-03-11T18:05:06.355Z,4.40
2023-03-11T18:07:40.999Z,4.22
2023-03-11T18:10:18.573Z,4.30
2023-03-11T18:12:54.398Z,4.37
2023-03-11T18:15:22.008Z,4.30
2023-03-11T18:17:50.061Z,4.00
2023-03-11T18:20:23.274Z,3.75
2023-03-11T18:22:53.994Z,3.50
2023-03-11T18:25:24.518Z,3.97
2023-03-11T18:27:53.925Z,3.95
2023-03-11T18:30:27.546Z,3.40
2023-03-11T18:32:58.725Z,3.47
2023-03-11T18:35:32.548Z,3.60
2023-03-11T18:38:03.548Z,3.75
2023-03-11T18:40:36.430Z,4.12
2023-03-11T18:43:13.773Z,4.62
2023-03-11T18:45:46.420Z,3.25
2023-03-11T18:48:18.035Z,3.42
2023-03-11T18:50:56.854Z,3.53
2023-03-11T18:53:25.740Z,3.47
2023-03-11T18:56:07.695Z,3.72
2023-03-11T18:58:43.504Z,2.78
2023-03-11T19:01:27.513Z,3.05
2023-03-11T19:04:01.625Z,3.10
2023-03-11T19:06:36.693Z,3.08
2023-03-11T19:09:09.286Z,2.97
2023-03-11T19:11:44.108Z,3.17
2023-03-11T19:14:18.425Z,3.40
2023-03-11T19:16:52.469Z,3.60
2023-03-11T19:19:27.375Z,3.40
2023-03-11T19:22:00.132Z,3.37
2023-03-11T19:24:38.882Z,3.20
2023-03-11T19:27:08.946Z,2.92
2023-03-11T19:29:38.154Z,2.65
2023-03-11T19:32:11.599Z,2.90
2023-03-11T19:34:40.719Z,2.62
2023-03-11T19:37:09.555Z,3.10
2023-03-11T19:39:43.114Z,2.70
2023-03-11T19:42:14.737Z,2.40
2023-03-11T19:44:46.112Z,2.90
2023-03-11T19:47:27.263Z,2.67
2023-03-11T19:49:55.042Z,2.90
2023-03-11T19:52:24.446Z,2.83
2023-03-11T19:54:52.665Z,2.87
2023-03-11T19:57:30.960Z,3.62
2023-03-11T19:59:58.545Z,2.60
2023-03-11T20:02:29.691Z,2.78
2023-03-11T20:04:58.189Z,2.85
2023-03-11T20:07:29.646Z,2.28
2023-03-11T20:10:02.778Z,2.50
2023-03-11T20:12:36.685Z,2.90
2023-03-11T20:15:11.160Z,2.58
2023-03-11T20:17:39.198Z,3.03
2023-03-11T20:20:11.550Z,3.05
2023-03-11T20:22:43.705Z,2.33
2023-03-11T20:25:16.566Z,3.07
2023-03-11T20:27:47.539Z,3.22
2023-03-11T20:30:19.099Z,2.97
2023-03-11T20:32:56.032Z,2.95
2023-03-11T20:35:24.691Z,2.58
2023-03-11T20:37:56.359Z,2.67
2023-03-11T20:40:27.493Z,2.83
2023-03-11T20:42:55.806Z,2.50
2023-03-11T20:45:26.840Z,2.30
2023-03-11T20:47:54.352Z,2.33
2023-03-11T20:50:23.965Z,2.60
2023-03-11T20:52:54.874Z,2.95
2023-03-11T20:55:26.217Z,2.58
2023-03-11T20:58:04.502Z,2.70
2023-03-11T21:00:39.541Z,2.35
2023-03-11T21:03:10.309Z,2.20
2023-03-11T21:05:41.754Z,2.40
2023-03-11T21:08:13.146Z,2.37
2023-03-11T21:10:41.038Z,2.33
2023-03-11T21:13:14.387Z,3.10
2023-03-11T21:15:42.165Z,2.45
2023-03-11T21:18:19.088Z,2.30
2023-03-11T21:20:50.735Z,2.12
2023-03-11T21:23:22.129Z,2.60
2023-03-11T21:26:00.776Z,2.70
2023-03-11T21:28:32.945Z,3.33
2023-03-11T21:31:30.589Z,2.30
2023-03-11T21:34:02.654Z,2.33
2023-03-11T21:36:34.618Z,2.30
2023-03-11T21:39:08.867Z,2.57
2023-03-11T21:41:37.273Z,2.15
2023-03-11T21:44:08.162Z,2.12
2023-03-11T21:46:49.457Z,2.20
2023-03-11T21:49:22.510Z,2.20
2023-03-11T21:54:22.710Z,2.35
2023-03-11T21:56:51.852Z,2.00
2023-03-11T21:59:25.409Z,2.35
2023-03-11T22:02:01.409Z,2.30
2023-03-11T22:04:36.926Z,2.05
2023-03-11T22:07:09.012Z,2.00
2023-03-11T22:09:46.345Z,2.27
2023-03-11T22:12:15.404Z,1.98
2023-03-11T22:14:44.023Z,2.20
2023-03-11T22:17:13.372Z,2.05
2023-03-11T22:19:44.636Z,2.50
2023-03-11T22:22:12.817Z,1.92
2023-03-11T22:24:43.076Z,2.00
2023-03-11T22:27:11.363Z,2.05
2023-03-11T22:29:42.158Z,2.05
2023-03-11T22:32:16.053Z,1.87
2023-03-11T22:34:46.356Z,2.00
2023-03-11T22:37:20.527Z,1.90
2023-03-11T22:39:57.336Z,1.92
2023-03-11T22:42:28.263Z,1.83
2023-03-11T22:45:01.894Z,1.98
2023-03-11T22:47:35.718Z,1.90
2023-03-11T22:50:04.453Z,2.08
2023-03-11T22:52:32.832Z,2.08
2023-03-11T22:55:10.449Z,1.75
2023-03-11T22:57:42.781Z,2.00
2023-03-11T23:00:14.628Z,1.90
2023-03-11T23:02:42.746Z,2.05
2023-03-11T23:05:10.576Z,2.62
2023-03-11T23:07:39.181Z,1.77
2023-03-11T23:10:08.611Z,2.08
2023-03-11T23:12:37.346Z,1.95
2023-03-11T23:15:10.856Z,2.22
2023-03-11T23:17:44.490Z,1.90
2023-03-11T23:20:17.390Z,2.30
2023-03-11T23:22:48.010Z,2.12
2023-03-11T23:25:20.761Z,1.60
2023-03-11T23:27:49.830Z,1.75
2023-03-11T23:30:17.488Z,2.05
2023-03-11T23:32:45.548Z,2.12
2023-03-11T23:35:13.531Z,2.50
2023-03-11T23:37:47.394Z,1.75
2023-03-11T23:40:20.879Z,1.77
2023-03-11T23:42:54.337Z,2.83
2023-03-11T23:47:51.821Z,2.15
2023-03-11T23:50:22.440Z,2.25
2023-03-11T23:52:57.352Z,2.08
2023-03-11T23:55:24.654Z,1.58
2023-03-11T23:57:51.701Z,2.17
